createdAt,value
2023-04-28T00:02:31.566Z,98836.53
2023-04-28T00:05:18.487Z,98862.38
2023-04-28T00:08:05.259Z,98860.66
2023-04-28T00:10:51.405Z,98874.41
2023-04-28T00:13:38.251Z,98845.16
2023-04-28T00:16:24.612Z,98850.31
2023-04-28T00:19:11.201Z,98821.91
2023-04-28T00:21:57.675Z,98849.47
2023-04-28T00:24:43.909Z,98835.69
2023-04-28T00:27:30.339Z,98824.47
2023-04-28T00:30:17.138Z,98854.59
2023-04-28T00:33:03.633Z,98847.69
2023-04-28T00:35:50.384Z,98803.84
2023-04-28T00:38:36.808Z,98841.69
2023-04-28T00:41:22.956Z,98842.56
2023-04-28T00:44:09.409Z,98837.41
2023-04-28T00:46:56.688Z,98817.59
2023-04-28T00:49:43.311Z,98796.94
2023-04-28T00:52:29.878Z,98805.53
2023-04-28T00:55:16.895Z,98821.91
2023-04-28T00:58:03.338Z,98799.53
2023-04-28T01:00:49.705Z,98819.31
2023-04-28T01:03:39.840Z,98809.84
2023-04-28T01:06:28.641Z,98803.81
2023-04-28T01:09:17.742Z,98819.31
2023-04-28T01:12:04.474Z,98759.97
2023-04-28T01:15:10.757Z,98775.41
2023-04-28T01:17:58.427Z,98759.09
2023-04-28T01:20:45.166Z,98760.78
2023-04-28T01:23:32.127Z,98773.69
2023-04-28T01:26:18.541Z,98787.47
2023-04-28T01:29:04.725Z,98765.06
2023-04-28T01:31:51.033Z,98768.47
2023-04-28T01:34:38.757Z,98787.44
2023-04-28T01:37:26.427Z,98777.13
2023-04-28T01:40:13.792Z,98783.13
2023-04-28T01:43:00.598Z,98717.78
2023-04-28T01:45:49.824Z,98739.25
2023-04-28T01:48:36.207Z,98759.88
2023-04-28T01:51:22.636Z,98743.53
2023-04-28T01:54:09.041Z,98749.56
2023-04-28T01:56:55.499Z,98742.72
2023-04-28T01:59:42.604Z,98759.06
2023-04-28T02:02:29.514Z,98694.56
2023-04-28T02:05:16.882Z,98752.97
2023-04-28T02:08:03.086Z,98712.59
2023-04-28T02:10:49.799Z,98768.50
2023-04-28T02:13:36.719Z,98754.72
2023-04-28T02:16:23.113Z,98687.66
2023-04-28T02:19:10.483Z,98746.94
2023-04-28T02:21:56.644Z,98765.03
2023-04-28T02:24:43.250Z,98734.09
2023-04-28T02:27:29.742Z,98758.16
2023-04-28T02:30:16.297Z,98748.69
2023-04-28T02:33:02.831Z,98739.22
2023-04-28T02:35:58.852Z,98755.56
2023-04-28T02:38:45.331Z,98735.78
2023-04-28T02:41:34.468Z,98732.34
2023-04-28T02:44:21.399Z,98758.97
2023-04-28T02:47:08.000Z,98766.72
2023-04-28T02:49:54.397Z,98783.94
2023-04-28T02:52:41.461Z,98779.66
2023-04-28T02:55:28.004Z,98761.53
2023-04-28T02:58:15.291Z,98736.59
2023-04-28T03:01:02.034Z,98772.72
2023-04-28T03:03:48.557Z,98773.59
2023-04-28T03:06:35.303Z,98751.22
2023-04-28T03:09:22.017Z,98769.28
2023-04-28T03:12:08.411Z,98725.47
2023-04-28T03:14:55.129Z,98763.31
2023-04-28T03:17:43.147Z,98759.84
2023-04-28T03:20:29.971Z,98725.47
2023-04-28T03:23:16.519Z,98746.09
2023-04-28T03:26:03.188Z,98745.19
2023-04-28T03:28:49.549Z,98742.63
2023-04-28T03:31:37.142Z,98706.53
2023-04-28T03:34:23.849Z,98665.25
2023-04-28T03:37:10.210Z,98720.28
2023-04-28T03:39:56.514Z,98718.50
2023-04-28T03:42:43.001Z,98687.56
2023-04-28T03:45:32.589Z,98684.16
2023-04-28T03:48:19.330Z,98685.88
2023-04-28T03:51:06.003Z,98685.03
2023-04-28T03:53:52.223Z,98678.91
2023-04-28T03:56:39.094Z,98697.88
2023-04-28T03:59:25.294Z,98696.22
2023-04-28T04:02:11.721Z,98632.59
2023-04-28T04:04:58.860Z,98692.72
2023-04-28T04:07:45.623Z,98714.25
2023-04-28T04:10:32.670Z,98681.50
2023-04-28T04:13:19.271Z,98689.31
2023-04-28T04:16:06.729Z,98692.72
2023-04-28T04:18:53.082Z,98675.50
2023-04-28T04:21:42.531Z,98721.91
2023-04-28T04:24:29.154Z,98684.94
2023-04-28T04:27:15.666Z,98704.69
2023-04-28T04:30:02.065Z,98660.84
2023-04-28T04:32:48.487Z,98717.56
2023-04-28T04:35:35.219Z,98703.81
2023-04-28T04:38:21.753Z,98685.78
2023-04-28T04:41:08.463Z,98650.47
2023-04-28T04:43:54.950Z,98687.41
2023-04-28T04:46:48.364Z,98674.53
2023-04-28T04:49:38.130Z,98659.88
2023-04-28T04:52:25.009Z,98630.66
2023-04-28T04:55:11.539Z,98680.44
2023-04-28T04:58:00.291Z,98667.53
2023-04-28T05:01:05.816Z,98685.53
2023-04-28T05:03:52.267Z,98699.38
2023-04-28T05:06:40.619Z,98666.72
2023-04-28T05:09:27.314Z,98681.38
2023-04-28T05:12:13.410Z,98671.91
2023-04-28T05:14:59.858Z,98671.09
2023-04-28T05:17:46.336Z,98695.13
2023-04-28T05:20:32.612Z,98665.03
2023-04-28T05:23:19.105Z,98680.38
2023-04-28T05:26:06.425Z,98676.91
2023-04-28T05:28:52.940Z,98672.63
2023-04-28T05:31:39.360Z,98669.25
2023-04-28T05:34:25.961Z,98673.47
2023-04-28T05:37:12.325Z,98695.00
2023-04-28T05:40:00.606Z,98676.03
2023-04-28T05:42:47.212Z,98590.16
2023-04-28T05:45:33.698Z,98670.03
2023-04-28T05:48:20.473Z,98686.31
2023-04-28T05:51:07.055Z,98685.31
2023-04-28T05:53:53.515Z,98680.97
2023-04-28T05:56:40.546Z,98680.06
2023-04-28T05:59:30.578Z,98656.03
2023-04-28T06:02:17.481Z,98681.81
2023-04-28T06:05:08.061Z,98684.31
2023-04-28T06:07:56.153Z,98688.56
2023-04-28T06:10:42.885Z,98692.75
2023-04-28T06:13:29.541Z,98688.34
2023-04-28T06:16:17.081Z,98670.28
2023-04-28T06:19:04.012Z,98669.22
2023-04-28T06:21:51.582Z,98686.31
2023-04-28T06:24:37.908Z,98673.22
2023-04-28T06:27:28.768Z,98675.56
2023-04-28T06:30:23.225Z,98665.09
2023-04-28T06:33:09.660Z,98664.31
2023-04-28T06:35:56.672Z,98651.44
2023-04-28T06:38:46.163Z,98675.41
2023-04-28T06:41:32.627Z,98672.03
2023-04-28T06:44:20.937Z,98661.69
2023-04-28T06:47:08.614Z,98662.53
2023-04-28T06:49:58.124Z,98665.97
2023-04-28T06:52:44.615Z,98654.78
2023-04-28T06:55:31.613Z,98643.56
2023-04-28T06:58:18.802Z,98665.81
2023-04-28T07:01:05.800Z,98630.41
2023-04-28T07:03:52.443Z,98659.69
2023-04-28T07:06:39.132Z,98655.31
2023-04-28T07:09:25.913Z,98657.91
2023-04-28T07:12:12.538Z,98661.38
2023-04-28T07:14:59.090Z,98639.00
2023-04-28T07:17:45.779Z,98654.63
2023-04-28T07:20:32.321Z,98633.81
2023-04-28T07:23:18.622Z,98643.44
2023-04-28T07:26:05.036Z,98656.66
2023-04-28T07:28:51.956Z,98663.50
2023-04-28T07:31:38.322Z,98673.06
2023-04-28T07:34:24.862Z,98651.72
2023-04-28T07:37:12.044Z,98680.88
2023-04-28T07:39:58.778Z,98670.75
2023-04-28T07:42:45.880Z,98682.97
2023-04-28T07:45:32.487Z,98686.47
2023-04-28T07:48:19.298Z,98685.72
2023-04-28T07:51:06.063Z,98627.38
2023-04-28T07:53:52.774Z,98693.66
2023-04-28T07:56:39.222Z,98714.41
2023-04-28T07:59:25.598Z,98705.03
2023-04-28T08:02:13.555Z,98684.34
2023-04-28T08:05:00.136Z,98690.19
2023-04-28T08:07:46.928Z,98693.56
2023-04-28T08:10:33.230Z,98670.34
2023-04-28T08:13:19.715Z,98710.63
2023-04-28T08:16:06.889Z,98708.72
2023-04-28T08:18:53.339Z,98700.09
2023-04-28T08:21:40.047Z,98687.03
2023-04-28T08:24:30.178Z,98705.94
2023-04-28T08:27:16.489Z,98706.91
2023-04-28T08:30:02.970Z,98702.75
2023-04-28T08:32:51.690Z,98707.00
2023-04-28T08:35:38.366Z,98701.88
2023-04-28T08:38:25.489Z,98725.00
2023-04-28T08:41:15.150Z,98720.56
2023-04-28T08:44:01.906Z,98723.75
2023-04-28T08:46:50.046Z,98708.84
2023-04-28T08:49:37.172Z,98707.69
2023-04-28T08:52:25.780Z,98691.19
2023-04-28T08:55:13.563Z,98712.69
2023-04-28T08:58:02.716Z,98710.72
2023-04-28T09:00:49.397Z,98716.84
2023-04-28T09:03:35.678Z,98737.53
2023-04-28T09:06:23.019Z,98725.44
2023-04-28T09:09:22.643Z,98746.16
2023-04-28T09:12:09.245Z,98738.41
2023-04-28T09:14:58.661Z,98729.22
2023-04-28T09:17:52.472Z,98754.88
2023-04-28T09:20:38.873Z,98741.75
2023-04-28T09:23:25.560Z,98732.81
2023-04-28T09:26:12.072Z,98731.56
2023-04-28T09:29:13.088Z,98717.53
2023-04-28T09:32:17.357Z,98736.38
2023-04-28T09:35:04.996Z,98730.09
2023-04-28T09:37:58.669Z,98725.56
2023-04-28T09:41:01.296Z,98728.44
2023-04-28T09:43:47.917Z,98727.28
2023-04-28T09:46:34.168Z,98728.53
2023-04-28T09:49:20.773Z,98730.75
2023-04-28T09:52:13.982Z,98723.81
2023-04-28T09:55:05.592Z,98721.69
2023-04-28T09:57:54.792Z,98720.13
2023-04-28T10:00:41.611Z,98719.69
2023-04-28T10:03:30.620Z,98721.09
2023-04-28T10:06:17.391Z,98699.00
2023-04-28T10:09:03.773Z,98721.69
2023-04-28T10:11:50.195Z,98715.31
2023-04-28T10:14:37.621Z,98693.97
2023-04-28T10:17:29.513Z,98657.53
2023-04-28T10:20:16.662Z,98681.97
2023-04-28T10:23:31.350Z,98704.81
2023-04-28T10:26:20.138Z,98687.72
2023-04-28T10:29:08.259Z,98711.22
2023-04-28T10:32:25.931Z,98703.81
2023-04-28T10:35:21.386Z,98699.41
2023-04-28T10:38:17.855Z,98697.81
2023-04-28T10:41:04.563Z,98709.53
2023-04-28T10:43:50.896Z,98681.72
2023-04-28T10:47:06.891Z,98710.91
2023-04-28T10:49:57.609Z,98707.03
2023-04-28T10:52:46.946Z,98707.75
2023-04-28T10:55:39.994Z,98709.06
2023-04-28T10:58:26.306Z,98707.19
2023-04-28T11:01:22.091Z,98713.63
2023-04-28T11:04:14.086Z,98711.75
2023-04-28T11:07:13.371Z,98711.19
2023-04-28T11:09:59.522Z,98715.31
2023-04-28T11:13:23.288Z,98713.25
2023-04-28T11:16:09.962Z,98712.78
2023-04-28T11:19:04.793Z,98713.56
2023-04-28T11:21:53.629Z,98706.25
2023-04-28T11:24:40.033Z,98687.38
2023-04-28T11:27:28.016Z,98694.63
2023-04-28T11:30:22.704Z,98706.25
2023-04-28T11:33:09.864Z,98702.19
2023-04-28T11:35:56.537Z,98702.41
2023-04-28T11:38:44.408Z,98711.66
2023-04-28T11:41:32.250Z,98695.50
2023-04-28T11:44:21.535Z,98697.53
2023-04-28T11:47:08.015Z,98703.47
2023-04-28T11:49:54.607Z,98719.13
2023-04-28T11:52:53.432Z,98709.06
2023-04-28T11:55:40.552Z,98704.75
2023-04-28T11:58:27.872Z,98715.28
2023-04-28T12:01:15.728Z,98710.19
2023-04-28T12:04:02.277Z,98702.72
2023-04-28T12:07:18.572Z,98709.53
2023-04-28T12:10:17.224Z,98719.16
2023-04-28T12:13:31.193Z,98717.75
2023-04-28T12:16:38.962Z,98703.34
2023-04-28T12:19:25.601Z,98716.59
2023-04-28T12:22:12.400Z,98717.53
2023-04-28T12:25:07.952Z,98714.25
2023-04-28T12:28:04.772Z,98714.91
2023-04-28T12:31:04.048Z,98722.25
2023-04-28T12:33:50.685Z,98709.06
2023-04-28T12:36:37.196Z,98712.88
2023-04-28T12:39:24.665Z,98703.91
2023-04-28T12:42:11.759Z,98698.75
2023-04-28T12:44:58.656Z,98693.38
2023-04-28T12:47:45.328Z,98688.59
2023-04-28T12:50:33.120Z,98691.59
2023-04-28T12:53:19.549Z,98685.97
2023-04-28T12:56:06.289Z,98670.50
2023-04-28T12:58:53.073Z,98680.41
2023-04-28T13:01:39.761Z,98697.41
2023-04-28T13:04:26.856Z,98686.66
2023-04-28T13:07:15.052Z,98696.25
2023-04-28T13:10:01.442Z,98690.16
2023-04-28T13:12:48.191Z,98689.56
2023-04-28T13:15:35.813Z,98683.53
2023-04-28T13:18:24.347Z,98679.88
2023-04-28T13:21:11.687Z,98684.50
2023-04-28T13:23:58.641Z,98690.97
2023-04-28T13:26:45.399Z,98673.00
2023-04-28T13:29:31.903Z,98678.75
2023-04-28T13:32:18.502Z,98672.94
2023-04-28T13:35:05.625Z,98675.69
2023-04-28T13:37:55.971Z,98673.41
2023-04-28T13:40:43.035Z,98651.44
2023-04-28T13:43:31.124Z,98653.81
2023-04-28T13:46:17.928Z,98666.63
2023-04-28T13:49:04.857Z,98654.97
2023-04-28T13:51:51.459Z,98639.22
2023-04-28T13:54:37.889Z,98645.97
2023-04-28T13:57:24.373Z,98650.75
2023-04-28T14:00:11.537Z,98641.94
2023-04-28T14:02:58.558Z,98644.41
2023-04-28T14:05:49.332Z,98630.44
2023-04-28T14:08:36.753Z,98645.34
2023-04-28T14:11:23.204Z,98649.06
2023-04-28T14:14:09.780Z,98627.94
2023-04-28T14:16:56.273Z,98653.53
2023-04-28T14:19:44.396Z,98643.47
2023-04-28T14:22:30.945Z,98652.34
2023-04-28T14:25:18.757Z,98619.63
2023-04-28T14:28:05.303Z,98607.28
2023-04-28T14:30:53.898Z,98630.38
2023-04-28T14:33:40.829Z,98611.97
2023-04-28T14:36:27.517Z,98621.41
2023-04-28T14:39:14.131Z,98623.44
2023-04-28T14:42:00.681Z,98617.78
2023-04-28T14:44:47.819Z,98614.31
2023-04-28T14:47:35.886Z,98622.78
2023-04-28T14:50:22.678Z,98632.13
2023-04-28T14:53:09.164Z,98625.25
2023-04-28T14:56:04.521Z,98633.28
2023-04-28T14:58:57.310Z,98627.75
2023-04-28T15:01:44.205Z,98612.97
2023-04-28T15:04:31.100Z,98623.09
2023-04-28T15:07:18.222Z,98624.06
2023-04-28T15:10:04.964Z,98600.56
2023-04-28T15:12:51.506Z,98608.44
2023-04-28T15:15:37.851Z,98585.06
2023-04-28T15:18:24.586Z,98598.19
2023-04-28T15:21:12.062Z,98586.16
2023-04-28T15:24:01.251Z,98598.84
2023-04-28T15:26:48.090Z,98584.31
2023-04-28T15:29:34.723Z,98599.94
2023-04-28T15:32:21.561Z,98599.59
2023-04-28T15:35:08.160Z,98612.00
2023-04-28T15:37:55.831Z,98610.75
2023-04-28T15:40:43.661Z,98599.72
2023-04-28T15:43:30.030Z,98603.81
2023-04-28T15:46:17.899Z,98597.41
2023-04-28T15:49:04.634Z,98579.19
2023-04-28T15:51:51.197Z,98567.00
2023-04-28T15:54:39.540Z,98597.03
2023-04-28T15:57:26.133Z,98581.25
2023-04-28T16:00:14.896Z,98569.63
2023-04-28T16:03:01.708Z,98596.84
2023-04-28T16:05:48.210Z,98595.72
2023-04-28T16:08:35.842Z,98598.91
2023-04-28T16:11:22.630Z,98590.78
2023-04-28T16:14:08.824Z,98581.47
2023-04-28T16:16:55.795Z,98586.78
2023-04-28T16:19:42.515Z,98587.47
2023-04-28T16:22:29.753Z,98604.66
2023-04-28T16:25:16.360Z,98585.84
2023-04-28T16:28:03.097Z,98569.84
2023-04-28T16:30:49.690Z,98606.06
2023-04-28T16:33:36.218Z,98578.81
2023-04-28T16:36:22.861Z,98599.56
2023-04-28T16:39:10.034Z,98588.63
2023-04-28T16:41:57.434Z,98590.31
2023-04-28T16:44:43.798Z,98599.13
2023-04-28T16:47:31.272Z,98596.31
2023-04-28T16:50:18.167Z,98588.81
2023-04-28T16:53:04.550Z,98598.44
2023-04-28T16:55:50.976Z,98602.75
2023-04-28T16:58:37.298Z,98600.16
2023-04-28T17:01:24.329Z,98579.38
2023-04-28T17:04:11.726Z,98589.03
2023-04-28T17:06:58.797Z,98583.47
2023-04-28T17:09:45.085Z,98565.06
2023-04-28T17:12:31.802Z,98579.84
2023-04-28T17:15:18.548Z,98577.59
2023-04-28T17:18:05.087Z,98552.34
2023-04-28T17:20:52.269Z,98584.69
2023-04-28T17:23:39.293Z,98574.34
2023-04-28T17:26:27.738Z,98579.03
2023-04-28T17:29:14.172Z,98584.53
2023-04-28T17:32:00.445Z,98571.81
2023-04-28T17:34:47.411Z,98560.78
2023-04-28T17:37:35.036Z,98588.50
2023-04-28T17:40:25.633Z,98590.38
2023-04-28T17:43:12.070Z,98582.03
2023-04-28T17:45:58.486Z,98583.56
2023-04-28T17:48:45.405Z,98576.22
2023-04-28T17:51:32.482Z,98583.19
2023-04-28T17:54:19.184Z,98589.78
2023-04-28T17:57:05.904Z,98592.88
2023-04-28T18:04:26.310Z,98586.81
2023-04-28T18:07:12.860Z,98577.09
2023-04-28T18:09:59.088Z,98609.38
2023-04-28T18:12:46.295Z,98602.78
2023-04-28T18:15:32.567Z,98605.88
2023-04-28T18:18:19.669Z,98603.78
2023-04-28T18:21:06.288Z,98606.91
2023-04-28T18:23:52.685Z,98605.50
2023-04-28T18:26:38.893Z,98613.69
2023-04-28T18:29:25.728Z,98621.88
2023-04-28T18:32:14.522Z,98621.31
2023-04-28T18:35:01.486Z,98624.84
2023-04-28T18:37:48.351Z,98619.22
2023-04-28T18:40:38.576Z,98641.06
2023-04-28T18:43:25.907Z,98618.97
2023-04-28T18:46:12.201Z,98623.31
2023-04-28T18:48:58.788Z,98641.97
2023-04-28T18:51:45.402Z,98645.50
2023-04-28T18:54:31.709Z,98632.09
2023-04-28T18:57:19.191Z,98654.69
2023-04-28T19:00:06.284Z,98636.91
2023-04-28T19:02:52.784Z,98658.53
2023-04-28T19:05:43.179Z,98652.59
2023-04-28T19:08:29.822Z,98661.34
2023-04-28T19:11:16.416Z,98641.63
2023-04-28T19:14:02.999Z,98659.47
2023-04-28T19:16:50.048Z,98594.44
2023-04-28T19:19:36.388Z,98645.03
2023-04-28T19:22:36.750Z,98662.34
2023-04-28T19:25:23.382Z,98643.66
2023-04-28T19:28:11.589Z,98651.50
2023-04-28T19:30:58.451Z,98651.59
2023-04-28T19:33:45.164Z,98656.91
2023-04-28T19:36:32.787Z,98652.69
2023-04-28T19:39:19.148Z,98682.03
2023-04-28T19:42:05.751Z,98680.47
2023-04-28T19:44:57.018Z,98677.91
2023-04-28T19:47:43.693Z,98633.44
2023-04-28T19:50:31.070Z,98669.44
2023-04-28T19:53:19.208Z,98700.47
2023-04-28T19:56:07.584Z,98695.31
2023-04-28T19:58:54.477Z,98690.19
2023-04-28T20:01:43.379Z,98688.50
2023-04-28T20:04:30.710Z,98694.50
2023-04-28T20:07:17.487Z,98698.94
2023-04-28T20:10:04.500Z,98701.63
2023-04-28T20:12:51.191Z,98703.41
2023-04-28T20:15:37.789Z,98709.44
2023-04-28T20:18:24.153Z,98710.28
2023-04-28T20:21:10.652Z,98711.09
2023-04-28T20:23:57.100Z,98683.50
2023-04-28T20:26:43.486Z,98706.69
2023-04-28T20:29:34.349Z,98704.88
2023-04-28T20:32:21.106Z,98700.56
2023-04-28T20:35:07.951Z,98698.75
2023-04-28T20:37:54.382Z,98703.13
2023-04-28T20:40:41.058Z,98701.44
2023-04-28T20:43:28.011Z,98701.44
2023-04-28T20:46:15.811Z,98648.34
2023-04-28T20:49:04.170Z,98691.94
2023-04-28T20:51:50.589Z,98688.69
2023-04-28T20:54:36.844Z,98701.56
2023-04-28T20:57:23.058Z,98705.00
2023-04-28T21:00:11.321Z,98714.50
2023-04-28T21:02:57.795Z,98718.84
2023-04-28T21:05:46.380Z,98718.91
2023-04-28T21:08:33.527Z,98705.88
2023-04-28T21:11:19.774Z,98725.78
2023-04-28T21:14:05.961Z,98720.63
2023-04-28T21:16:52.271Z,98726.50
2023-04-28T21:19:38.944Z,98711.88
2023-04-28T21:22:26.095Z,98720.50
2023-04-28T21:25:12.883Z,98708.56
2023-04-28T21:28:01.506Z,98724.16
2023-04-28T21:30:52.167Z,98727.78
2023-04-28T21:33:38.793Z,98726.09
2023-04-28T21:36:25.098Z,98697.88
2023-04-28T21:39:11.574Z,98719.44
2023-04-28T21:41:57.773Z,98726.41
2023-04-28T21:44:43.976Z,98721.28
2023-04-28T21:47:30.553Z,98720.47
2023-04-28T21:50:17.316Z,98705.03
2023-04-28T21:53:04.012Z,98731.66
2023-04-28T21:55:50.777Z,98697.31
2023-04-28T21:58:37.338Z,98721.44
2023-04-28T22:01:23.626Z,98721.44
2023-04-28T22:04:10.904Z,98727.47
2023-04-28T22:06:57.594Z,98712.06
2023-04-28T22:09:44.248Z,98723.31
2023-04-28T22:12:30.851Z,98715.59
2023-04-28T22:15:17.577Z,98725.06
2023-04-28T22:18:04.160Z,98722.56
2023-04-28T22:20:50.912Z,98703.63
2023-04-28T22:23:37.422Z,98705.38
2023-04-28T22:26:24.336Z,98710.47
2023-04-28T22:29:11.172Z,98721.63
2023-04-28T22:31:58.686Z,98720.72
2023-04-28T22:34:44.999Z,98701.81
2023-04-28T22:37:31.674Z,98725.84
2023-04-28T22:40:18.446Z,98716.38
2023-04-28T22:43:04.807Z,98720.72
2023-04-28T22:45:52.513Z,98731.09
2023-04-28T22:48:38.814Z,98712.19
2023-04-28T22:51:25.478Z,98730.25
2023-04-28T22:54:11.800Z,98724.19
2023-04-28T22:56:59.310Z,98720.72
2023-04-28T22:59:45.607Z,98711.22
2023-04-28T23:02:32.778Z,98723.19
2023-04-28T23:05:19.637Z,98724.03
2023-04-28T23:08:06.226Z,98720.53
2023-04-28T23:10:55.650Z,98709.41
2023-04-28T23:13:41.922Z,98722.31
2023-04-28T23:16:28.440Z,98719.63
2023-04-28T23:19:15.212Z,98713.69
2023-04-28T23:22:01.908Z,98720.59
2023-04-28T23:24:48.244Z,98719.72
2023-04-28T23:27:35.018Z,98721.47
2023-04-28T23:30:21.637Z,98707.63
2023-04-28T23:33:08.065Z,98726.28
2023-04-28T23:35:54.757Z,98704.66
2023-04-28T23:38:41.742Z,98725.19
2023-04-28T23:41:28.545Z,98725.00
2023-04-28T23:44:15.213Z,98726.56
2023-04-28T23:47:01.700Z,98726.66
2023-04-28T23:49:48.557Z,98726.66
2023-04-28T23:52:36.553Z,98723.19
2023-04-28T23:55:22.922Z,98722.16
2023-04-28T23:58:09.520Z,98701.44
